Time;durP1;ratioP1;P1;durP2;ratioP2;P2;SDS_P1;SDS_P2;PMS_P1;PMS_P2;Temp;Humidity;BMP_temperature;BMP_pressure;BME280_temperature;BME280_humidity;BME280_pressure;Samples;Min_cycle;Max_cycle;Signal;HPM_P1;HPM_P2
2022/07/19 00:00:20;;;;;;;;;;;21.20;68.00;;;;;;5055578;28;1957;-66
2022/07/19 00:02:46;;;;;;;;;;;21.20;68.00;;;;;;5037896;28;950;-66
2022/07/19 00:05:11;;;;;;;;;;;21.20;68.00;;;;;;5037436;28;1186;-66
2022/07/19 00:07:37;;;;;;;;;;;21.20;68.00;;;;;;5055168;28;1339;-65
2022/07/19 00:10:03;;;;;;;;;;;21.20;68.00;;;;;;5037564;28;1073;-66
2022/07/19 00:12:28;;;;;;;;;;;21.20;68.00;;;;;;5037594;28;953;-66
2022/07/19 00:14:54;;;;;;;;;;;21.20;68.00;;;;;;5037355;28;888;-65
2022/07/19 00:17:19;;;;;;;;;;;21.20;68.10;;;;;;5055289;28;1151;-67
2022/07/19 00:19:45;;;;;;;;;;;21.20;68.00;;;;;;5055206;28;1964;-65
2022/07/19 00:22:10;;;;;;;;;;;21.20;68.10;;;;;;5054991;28;1076;-66
2022/07/19 00:24:36;;;;;;;;;;;21.20;68.10;;;;;;5055216;28;792;-66
2022/07/19 00:27:01;;;;;;;;;;;21.20;68.10;;;;;;5054831;28;1271;-65
2022/07/19 00:29:27;;;;;;;;;;;21.20;68.50;;;;;;5055222;28;915;-65
2022/07/19 00:31:52;;;;;;;;;;;21.20;68.10;;;;;;5037102;28;1061;-66
2022/07/19 00:34:17;;;;;;;;;;;21.20;68.10;;;;;;5054782;28;1065;-65
2022/07/19 00:36:43;;;;;;;;;;;21.20;68.10;;;;;;5054617;28;1214;-65
2022/07/19 00:39:08;;;;;;;;;;;21.20;68.10;;;;;;5054681;28;1961;-67
2022/07/19 00:41:41;;;;;;;;;;;21.20;68.10;;;;;;5055037;28;784;-66
2022/07/19 00:44:06;;;;;;;;;;;21.20;68.10;;;;;;5020648;28;726;-65
2022/07/19 00:46:32;;;;;;;;;;;21.20;68.10;;;;;;5054674;28;1274;-65
2022/07/19 00:48:57;;;;;;;;;;;21.20;68.10;;;;;;5054226;28;859;-66
2022/07/19 00:51:22;;;;;;;;;;;21.20;68.20;;;;;;5054502;28;884;-67
2022/07/19 00:53:48;;;;;;;;;;;21.20;68.20;;;;;;5054482;28;1049;-65
2022/07/19 00:56:13;;;;;;;;;;;21.20;68.20;;;;;;5036656;28;1069;-66
2022/07/19 00:58:39;;;;;;;;;;;21.20;68.10;;;;;;5054461;28;1965;-66
2022/07/19 01:01:05;;;;;;;;;;;21.20;68.20;;;;;;5054380;28;918;-65
2022/07/19 01:03:31;;;;;;;;;;;21.20;68.20;;;;;;5054499;28;835;-65
2022/07/19 01:05:56;;;;;;;;;;;21.20;68.20;;;;;;5053815;28;1174;-65
2022/07/19 01:08:22;;;;;;;;;;;21.20;68.30;;;;;;5054337;28;1260;-66
2022/07/19 01:10:47;;;;;;;;;;;21.20;68.20;;;;;;5036578;28;795;-66
2022/07/19 01:13:13;;;;;;;;;;;21.20;68.30;;;;;;5036450;28;1105;-66
2022/07/19 01:15:39;;;;;;;;;;;21.20;68.30;;;;;;5036244;28;819;-65
2022/07/19 01:18:05;;;;;;;;;;;21.20;68.30;;;;;;5036213;28;1902;-65
2022/07/19 01:20:30;;;;;;;;;;;21.20;68.30;;;;;;5036059;28;1524;-66
2022/07/19 01:22:56;;;;;;;;;;;21.20;68.30;;;;;;5054149;28;858;-66
2022/07/19 01:25:21;;;;;;;;;;;21.20;68.30;;;;;;5053733;28;993;-65
2022/07/19 01:27:48;;;;;;;;;;;21.20;68.30;;;;;;5036641;28;1239;-66
2022/07/19 01:30:17;;;;;;;;;;;21.20;68.30;;;;;;5053891;28;835;-65
2022/07/19 01:32:43;;;;;;;;;;;21.20;68.40;;;;;;5036092;28;942;-65
2022/07/19 01:35:09;;;;;;;;;;;21.20;68.40;;;;;;5053421;28;830;-66
2022/07/19 01:37:34;;;;;;;;;;;21.20;68.40;;;;;;5053718;28;1208;-67
2022/07/19 01:40:01;;;;;;;;;;;21.20;68.40;;;;;;5035945;28;1977;-65
2022/07/19 01:42:26;;;;;;;;;;;21.20;68.30;;;;;;5053761;28;800;-67
2022/07/19 01:44:52;;;;;;;;;;;21.20;68.30;;;;;;5053369;28;1002;-67
2022/07/19 01:47:17;;;;;;;;;;;21.20;68.30;;;;;;5053555;28;1181;-66
2022/07/19 01:49:42;;;;;;;;;;;21.20;68.40;;;;;;5053403;28;824;-67
2022/07/19 01:52:08;;;;;;;;;;;21.20;68.40;;;;;;5053686;28;847;-66
2022/07/19 01:54:33;;;;;;;;;;;21.20;68.40;;;;;;5053235;28;938;-66
2022/07/19 01:56:59;;;;;;;;;;;21.20;68.40;;;;;;5053328;28;1266;-67
2022/07/19 01:59:24;;;;;;;;;;;21.20;68.40;;;;;;5052562;28;1893;-66
2022/07/19 02:01:50;;;;;;;;;;;21.20;68.40;;;;;;5053402;28;953;-67
2022/07/19 02:04:15;;;;;;;;;;;21.10;68.30;;;;;;5052839;28;1127;-66
2022/07/19 02:06:40;;;;;;;;;;;21.20;68.40;;;;;;5053151;28;1276;-67
2022/07/19 02:09:06;;;;;;;;;;;21.20;68.40;;;;;;5053189;28;894;-66
2022/07/19 02:11:34;;;;;;;;;;;21.20;68.50;;;;;;5053470;28;918;-67
2022/07/19 02:14:00;;;;;;;;;;;21.20;68.50;;;;;;5052945;28;859;-66
2022/07/19 02:16:25;;;;;;;;;;;21.20;68.40;;;;;;5053062;28;1069;-67
2022/07/19 02:18:51;;;;;;;;;;;21.20;68.40;;;;;;5052717;28;1976;-67
2022/07/19 02:21:17;;;;;;;;;;;21.20;68.50;;;;;;5052940;28;886;-66
2022/07/19 02:23:42;;;;;;;;;;;21.10;68.40;;;;;;5035228;28;894;-67
2022/07/19 02:26:08;;;;;;;;;;;21.20;68.50;;;;;;5052941;28;966;-67
2022/07/19 02:28:33;;;;;;;;;;;21.20;68.50;;;;;;5052909;28;1197;-67
2022/07/19 02:30:58;;;;;;;;;;;21.20;68.50;;;;;;5052940;28;768;-66
2022/07/19 02:33:24;;;;;;;;;;;21.20;68.60;;;;;;5052696;28;950;-67
2022/07/19 02:35:49;;;;;;;;;;;21.20;68.60;;;;;;5052683;28;1026;-67
2022/07/19 02:38:15;;;;;;;;;;;21.20;68.60;;;;;;5052740;28;1906;-67
2022/07/19 02:40:40;;;;;;;;;;;21.20;68.60;;;;;;5052801;28;1129;-66
2022/07/19 02:43:06;;;;;;;;;;;21.20;68.60;;;;;;5052837;28;882;-67
2022/07/19 02:45:31;;;;;;;;;;;21.10;68.60;;;;;;5052526;28;918;-66
2022/07/19 02:47:57;;;;;;;;;;;21.10;68.60;;;;;;5052496;28;1240;-65
2022/07/19 02:50:22;;;;;;;;;;;21.20;68.60;;;;;;5052760;28;784;-67
2022/07/19 02:52:48;;;;;;;;;;;21.20;68.60;;;;;;5052729;28;1014;-67
2022/07/19 02:55:13;;;;;;;;;;;21.20;68.60;;;;;;5052523;28;1010;-67
2022/07/19 02:57:38;;;;;;;;;;;21.10;68.50;;;;;;5052757;28;1293;-67
2022/07/19 03:00:05;;;;;;;;;;;21.20;68.60;;;;;;5052904;28;1949;-67
2022/07/19 03:02:30;;;;;;;;;;;21.20;68.60;;;;;;5052415;28;846;-67
2022/07/19 03:04:56;;;;;;;;;;;21.10;68.60;;;;;;5052054;28;1115;-67
2022/07/19 03:07:21;;;;;;;;;;;21.10;68.60;;;;;;5052513;28;1373;-67
2022/07/19 03:09:47;;;;;;;;;;;21.20;68.70;;;;;;5052588;28;928;-67
2022/07/19 03:12:12;;;;;;;;;;;21.10;68.60;;;;;;5056603;28;863;-67
2022/07/19 03:14:38;;;;;;;;;;;21.20;68.70;;;;;;5056341;28;756;-66
2022/07/19 03:17:03;;;;;;;;;;;21.10;68.60;;;;;;5038296;28;1272;-67
2022/07/19 03:19:29;;;;;;;;;;;21.20;68.70;;;;;;5056301;28;1898;-67
2022/07/19 03:21:55;;;;;;;;;;;21.10;68.70;;;;;;5056343;28;835;-67
2022/07/19 03:24:20;;;;;;;;;;;21.10;68.60;;;;;;5056032;28;699;-67
2022/07/19 03:26:46;;;;;;;;;;;21.10;68.70;;;;;;5056055;28;1227;-67
2022/07/19 03:29:11;;;;;;;;;;;21.10;68.60;;;;;;5056358;28;721;-66
2022/07/19 03:31:37;;;;;;;;;;;21.10;68.70;;;;;;5055991;28;768;-66
2022/07/19 03:34:02;;;;;;;;;;;21.20;68.70;;;;;;5055780;28;791;-67
2022/07/19 03:36:28;;;;;;;;;;;21.10;68.70;;;;;;5038125;28;1188;-67
2022/07/19 03:38:53;;;;;;;;;;;21.10;68.70;;;;;;5055833;28;1906;-67
2022/07/19 03:41:19;;;;;;;;;;;21.10;68.70;;;;;;5055938;28;792;-67
2022/07/19 03:43:44;;;;;;;;;;;21.10;68.70;;;;;;5055834;28;898;-67
2022/07/19 03:46:10;;;;;;;;;;;21.10;68.80;;;;;;5055755;28;887;-66
2022/07/19 03:48:35;;;;;;;;;;;21.10;68.80;;;;;;5055685;28;1215;-66
2022/07/19 03:51:01;;;;;;;;;;;21.10;68.80;;;;;;5055871;28;881;-68
2022/07/19 03:53:26;;;;;;;;;;;21.10;68.80;;;;;;5055761;28;827;-67
2022/07/19 03:55:52;;;;;;;;;;;21.10;68.80;;;;;;5055794;28;901;-66
2022/07/19 03:58:17;;;;;;;;;;;21.20;68.80;;;;;;5055514;28;1898;-67
2022/07/19 04:00:45;;;;;;;;;;;21.20;68.80;;;;;;5055505;28;891;-67
2022/07/19 04:03:11;;;;;;;;;;;21.10;68.80;;;;;;5038074;28;745;-67
2022/07/19 04:05:36;;;;;;;;;;;21.10;68.70;;;;;;5037373;28;1225;-67
2022/07/19 04:08:02;;;;;;;;;;;21.20;68.80;;;;;;5055369;28;1292;-67
2022/07/19 04:10:27;;;;;;;;;;;21.10;68.80;;;;;;5055311;28;875;-68
2022/07/19 04:12:52;;;;;;;;;;;21.20;68.80;;;;;;5055453;28;1009;-66
2022/07/19 04:15:18;;;;;;;;;;;21.10;68.80;;;;;;5055035;28;1025;-65
2022/07/19 04:17:43;;;;;;;;;;;21.20;68.80;;;;;;5037364;28;1203;-66
2022/07/19 04:20:09;;;;;;;;;;;21.10;68.80;;;;;;5055374;28;1906;-66
2022/07/19 04:22:34;;;;;;;;;;;21.20;68.80;;;;;;5054234;28;875;-66
2022/07/19 04:25:02;;;;;;;;;;;21.20;68.80;;;;;;5037102;28;812;-66
2022/07/19 04:27:28;;;;;;;;;;;21.10;68.80;;;;;;5054892;28;1301;-66
2022/07/19 04:29:53;;;;;;;;;;;21.20;68.90;;;;;;5055129;28;795;-66
2022/07/19 04:32:19;;;;;;;;;;;21.10;68.80;;;;;;5054839;28;796;-66
2022/07/19 04:34:44;;;;;;;;;;;21.10;68.90;;;;;;5054851;28;842;-65
2022/07/19 04:37:09;;;;;;;;;;;21.10;68.90;;;;;;5054868;28;1209;-65
2022/07/19 04:39:35;;;;;;;;;;;21.20;68.90;;;;;;5055010;28;1971;-66
2022/07/19 04:42:00;;;;;;;;;;;21.20;68.90;;;;;;5054817;28;939;-65
2022/07/19 04:44:26;;;;;;;;;;;21.10;68.90;;;;;;5054905;28;1005;-65
2022/07/19 04:46:51;;;;;;;;;;;21.10;68.90;;;;;;5054599;28;1295;-66
2022/07/19 04:49:16;;;;;;;;;;;21.10;68.90;;;;;;5054848;28;760;-65
2022/07/19 04:51:42;;;;;;;;;;;21.10;68.90;;;;;;5054692;28;843;-65
2022/07/19 04:54:07;;;;;;;;;;;21.10;68.90;;;;;;5054487;28;828;-65
2022/07/19 04:56:33;;;;;;;;;;;21.20;68.90;;;;;;5054548;28;1279;-65
2022/07/19 04:58:58;;;;;;;;;;;21.10;68.90;;;;;;5054504;28;1902;-66
2022/07/19 05:01:24;;;;;;;;;;;21.10;68.90;;;;;;5054326;28;842;-66
2022/07/19 05:03:49;;;;;;;;;;;21.10;68.90;;;;;;5054273;28;879;-67
2022/07/19 05:06:15;;;;;;;;;;;21.10;69.00;;;;;;5054258;28;1198;-66
2022/07/19 05:08:40;;;;;;;;;;;21.10;68.90;;;;;;5054317;28;1224;-66
2022/07/19 05:11:05;;;;;;;;;;;21.10;68.90;;;;;;5036566;28;859;-65
2022/07/19 05:13:31;;;;;;;;;;;21.20;69.00;;;;;;5054208;28;788;-66
2022/07/19 05:15:57;;;;;;;;;;;21.10;69.00;;;;;;5053832;28;850;-66
2022/07/19 05:18:22;;;;;;;;;;;21.10;68.90;;;;;;5054258;28;1975;-66
2022/07/19 05:20:47;;;;;;;;;;;21.20;69.00;;;;;;5054116;28;1158;-65
2022/07/19 05:23:13;;;;;;;;;;;21.10;69.70;;;;;;5054117;28;1006;-65
2022/07/19 05:25:38;;;;;;;;;;;21.10;68.90;;;;;;5053758;28;1010;-65
2022/07/19 05:28:04;;;;;;;;;;;21.10;68.90;;;;;;5053902;28;1309;-66
2022/07/19 05:30:30;;;;;;;;;;;21.10;69.70;;;;;;5053661;28;847;-65
2022/07/19 05:32:55;;;;;;;;;;;21.20;69.00;;;;;;5053890;28;953;-66
2022/07/19 05:35:20;;;;;;;;;;;21.10;69.00;;;;;;5053630;28;1057;-66
2022/07/19 05:37:46;;;;;;;;;;;21.20;69.00;;;;;;5053999;28;1283;-65
2022/07/19 05:40:11;;;;;;;;;;;21.10;69.00;;;;;;5053716;28;1898;-66
2022/07/19 05:42:37;;;;;;;;;;;21.10;69.00;;;;;;5053712;28;1002;-65
2022/07/19 05:45:03;;;;;;;;;;;21.20;69.00;;;;;;5053235;28;796;-66
2022/07/19 05:47:28;;;;;;;;;;;21.10;69.00;;;;;;5053504;28;1291;-66
2022/07/19 05:49:53;;;;;;;;;;;21.10;69.00;;;;;;5053581;28;800;-67
2022/07/19 05:52:19;;;;;;;;;;;21.10;69.00;;;;;;5053523;28;887;-66
2022/07/19 05:54:44;;;;;;;;;;;21.10;69.00;;;;;;5053264;28;891;-64
2022/07/19 05:57:10;;;;;;;;;;;21.10;69.00;;;;;;5053395;28;1228;-65
2022/07/19 05:59:35;;;;;;;;;;;21.20;68.90;;;;;;5053143;28;1894;-65
2022/07/19 06:02:01;;;;;;;;;;;21.10;69.00;;;;;;5053488;28;889;-64
2022/07/19 06:04:27;;;;;;;;;;;21.10;69.10;;;;;;5053314;28;1189;-65
2022/07/19 06:06:52;;;;;;;;;;;21.10;69.10;;;;;;5053336;28;1347;-65
2022/07/19 06:09:18;;;;;;;;;;;21.10;69.20;;;;;;5035449;28;816;-65
2022/07/19 06:11:43;;;;;;;;;;;21.10;69.20;;;;;;5039092;28;1893;-66
2022/07/19 06:14:09;;;;;;;;;;;21.20;69.20;;;;;;5046039;28;1963;-66
2022/07/19 06:16:35;;;;;;;;;;;21.20;69.10;;;;;;5049959;28;1420;-65
2022/07/19 06:19:00;;;;;;;;;;;21.20;69.00;;;;;;5043427;28;1973;-64
2022/07/19 06:21:26;;;;;;;;;;;21.20;69.00;;;;;;5051807;28;890;-65
2022/07/19 06:23:51;;;;;;;;;;;21.20;69.10;;;;;;5033951;28;938;-66
2022/07/19 06:26:17;;;;;;;;;;;21.20;69.10;;;;;;5051870;28;879;-65
2022/07/19 06:28:42;;;;;;;;;;;21.20;69.00;;;;;;5051665;28;1180;-66
2022/07/19 06:31:08;;;;;;;;;;;21.20;69.00;;;;;;5034199;28;962;-66
2022/07/19 06:33:34;;;;;;;;;;;21.20;68.90;;;;;;5051754;28;1002;-65
2022/07/19 06:35:59;;;;;;;;;;;21.20;68.90;;;;;;5051504;28;792;-64
2022/07/19 06:38:24;;;;;;;;;;;21.20;68.80;;;;;;5051954;28;1902;-64
2022/07/19 06:40:50;;;;;;;;;;;21.20;68.80;;;;;;5052035;28;795;-64
2022/07/19 06:43:15;;;;;;;;;;;21.20;68.50;;;;;;5049899;28;1468;-66
2022/07/19 06:45:41;;;;;;;;;;;21.20;68.50;;;;;;5032089;28;1846;-66
2022/07/19 06:48:06;;;;;;;;;;;21.20;68.50;;;;;;5039772;28;1282;-65
2022/07/19 06:50:32;;;;;;;;;;;21.20;68.60;;;;;;5058259;28;1055;-65
2022/07/19 06:52:57;;;;;;;;;;;21.20;68.60;;;;;;5038526;28;1038;-66
2022/07/19 06:55:22;;;;;;;;;;;21.20;68.20;;;;;;5038178;28;1073;-66
2022/07/19 06:57:48;;;;;;;;;;;21.20;68.10;;;;;;5038539;28;1294;-66
2022/07/19 07:00:13;;;;;;;;;;;21.20;68.00;;;;;;5039080;28;2024;-66
2022/07/19 07:02:39;;;;;;;;;;;21.20;67.70;;;;;;5039207;28;1010;-66
2022/07/19 07:05:05;;;;;;;;;;;21.20;67.60;;;;;;5046077;28;1311;-66
2022/07/19 07:07:30;;;;;;;;;;;21.30;67.60;;;;;;5059191;28;1216;-66
2022/07/19 07:09:56;;;;;;;;;;;21.20;67.50;;;;;;5056072;28;1862;-66
2022/07/19 07:12:21;;;;;;;;;;;21.30;67.50;;;;;;5055574;28;2223;-66
2022/07/19 07:14:47;;;;;;;;;;;21.30;67.40;;;;;;5056591;28;1291;-66
2022/07/19 07:17:12;;;;;;;;;;;21.30;67.20;;;;;;5052572;28;1292;-66
2022/07/19 07:19:38;;;;;;;;;;;21.30;67.10;;;;;;5029429;28;1959;-66
2022/07/19 07:22:03;;;;;;;;;;;21.30;67.10;;;;;;5058395;28;823;-66
2022/07/19 07:24:28;;;;;;;;;;;21.30;66.90;;;;;;5055230;28;2172;-64
2022/07/19 07:26:54;;;;;;;;;;;21.30;66.90;;;;;;5052355;28;1294;-66
2022/07/19 07:29:19;;;;;;;;;;;21.30;66.70;;;;;;5059287;28;1257;-64
2022/07/19 07:31:45;;;;;;;;;;;21.30;66.60;;;;;;5052819;28;1877;-64
2022/07/19 07:34:10;;;;;;;;;;;21.30;66.40;;;;;;5058245;28;1120;-64
2022/07/19 07:36:36;;;;;;;;;;;21.30;66.30;;;;;;5058416;28;1275;-65
2022/07/19 07:39:01;;;;;;;;;;;21.30;66.20;;;;;;5058535;28;1902;-64
2022/07/19 07:41:27;;;;;;;;;;;21.30;65.80;;;;;;5052463;28;2206;-66
2022/07/19 07:43:52;;;;;;;;;;;21.30;65.50;;;;;;5055167;28;1722;-65
2022/07/19 07:46:18;;;;;;;;;;;21.40;66.30;;;;;;5052225;28;1861;-66
2022/07/19 07:48:43;;;;;;;;;;;21.40;66.40;;;;;;5056703;28;1944;-65
2022/07/19 07:51:09;;;;;;;;;;;21.40;66.70;;;;;;5055223;28;1216;-66
2022/07/19 07:53:34;;;;;;;;;;;21.40;66.90;;;;;;5057028;28;1328;-67
2022/07/19 07:56:00;;;;;;;;;;;21.50;67.00;;;;;;5058006;28;1299;-66
2022/07/19 07:58:25;;;;;;;;;;;21.50;67.20;;;;;;5052132;28;2279;-64
2022/07/19 08:00:50;;;;;;;;;;;21.50;67.30;;;;;;5030305;28;1856;-66
2022/07/19 08:03:17;;;;;;;;;;;21.50;67.30;;;;;;5055149;28;1527;-64
2022/07/19 08:05:47;;;;;;;;;;;21.50;67.60;;;;;;5029429;28;1581;-65
2022/07/19 08:08:13;;;;;;;;;;;21.50;67.80;;;;;;5046600;28;1545;-65
2022/07/19 08:10:38;;;;;;;;;;;21.60;68.70;;;;;;5055402;28;1005;-64
2022/07/19 08:13:04;;;;;;;;;;;21.60;67.80;;;;;;5032923;28;1526;-64
2022/07/19 08:15:29;;;;;;;;;;;21.60;67.80;;;;;;5017577;28;1029;-64
2022/07/19 08:17:55;;;;;;;;;;;21.60;67.90;;;;;;5020023;28;1843;-66
2022/07/19 08:20:20;;;;;;;;;;;21.60;68.00;;;;;;5052455;28;2106;-65
2022/07/19 08:22:46;;;;;;;;;;;21.60;68.10;;;;;;5054003;28;1600;-66
2022/07/19 08:25:14;;;;;;;;;;;21.60;68.30;;;;;;5055047;28;792;-65
2022/07/19 08:27:40;;;;;;;;;;;21.60;68.40;;;;;;5054859;28;1211;-66
2022/07/19 08:30:06;;;;;;;;;;;21.60;68.70;;;;;;5055002;28;919;-65
2022/07/19 08:32:31;;;;;;;;;;;21.60;68.80;;;;;;5055032;28;1021;-65
2022/07/19 08:34:56;;;;;;;;;;;21.60;69.00;;;;;;5049877;28;2269;-65
2022/07/19 08:37:22;;;;;;;;;;;21.60;69.10;;;;;;5054909;28;1414;-66
2022/07/19 08:39:47;;;;;;;;;;;21.60;70.10;;;;;;5050712;28;1972;-65
2022/07/19 08:42:16;;;;;;;;;;;21.60;69.40;;;;;;5054745;28;1432;-64
2022/07/19 08:44:42;;;;;;;;;;;21.60;69.60;;;;;;5041019;28;1258;-65
2022/07/19 08:47:07;;;;;;;;;;;21.60;69.70;;;;;;5036692;28;1402;-66
2022/07/19 08:49:32;;;;;;;;;;;21.60;70.00;;;;;;5046507;28;1552;-66
2022/07/19 08:51:58;;;;;;;;;;;21.60;70.10;;;;;;5054760;28;939;-65
2022/07/19 08:54:23;;;;;;;;;;;21.60;70.20;;;;;;5020092;28;1283;-65
2022/07/19 08:59:33;;;;;;;;;;;21.70;71.70;;;;;;5054576;28;1907;-66
2022/07/19 09:01:58;;;;;;;;;;;21.60;71.40;;;;;;5054649;28;875;-65
2022/07/19 09:04:33;;;;;;;;;;;21.70;71.70;;;;;;5054230;28;1433;-65
2022/07/19 09:06:58;;;;;;;;;;;21.70;71.80;;;;;;5049875;28;2293;-65
2022/07/19 09:09:25;;;;;;;;;;;21.80;71.70;;;;;;5053828;28;1591;-65
2022/07/19 09:11:51;;;;;;;;;;;21.70;71.60;;;;;;5020526;28;1670;-65
2022/07/19 09:14:17;;;;;;;;;;;21.70;71.40;;;;;;5035995;28;1292;-65
2022/07/19 09:16:48;;;;;;;;;;;21.80;71.40;;;;;;5054222;28;1537;-64
2022/07/19 09:19:14;;;;;;;;;;;21.80;71.20;;;;;;5054102;28;1969;-65
2022/07/19 09:22:00;;;;;;;;;;;21.70;71.00;;;;;;5054146;28;1060;-64
2022/07/19 09:24:26;;;;;;;;;;;21.80;71.80;;;;;;5053714;28;1067;-66
2022/07/19 09:26:58;;;;;;;;;;;21.80;71.10;;;;;;5053964;28;1330;-64
2022/07/19 09:29:24;;;;;;;;;;;21.70;71.00;;;;;;5054269;28;847;-65
2022/07/19 09:32:06;;;;;;;;;;;21.80;71.10;;;;;;5053913;28;949;-65
2022/07/19 09:34:32;;;;;;;;;;;21.70;71.00;;;;;;5036004;28;920;-65
2022/07/19 09:37:17;;;;;;;;;;;21.80;71.00;;;;;;5053806;28;1323;-65
2022/07/19 09:39:45;;;;;;;;;;;21.70;71.00;;;;;;5035996;28;1969;-65
2022/07/19 09:42:30;;;;;;;;;;;21.80;71.10;;;;;;5053773;28;866;-65
2022/07/19 09:44:57;;;;;;;;;;;21.70;71.10;;;;;;5039371;28;1470;-65
2022/07/19 09:47:29;;;;;;;;;;;21.70;71.30;;;;;;5053929;28;1145;-65
2022/07/19 09:49:54;;;;;;;;;;;21.80;71.20;;;;;;5053816;28;835;-65
2022/07/19 09:52:20;;;;;;;;;;;21.70;71.10;;;;;;5053477;28;820;-65
2022/07/19 09:54:45;;;;;;;;;;;21.70;71.20;;;;;;5053502;28;842;-67
2022/07/19 09:57:11;;;;;;;;;;;21.80;71.20;;;;;;5035591;28;1221;-66
2022/07/19 09:59:36;;;;;;;;;;;21.80;71.10;;;;;;5035900;28;1898;-66
2022/07/19 10:02:02;;;;;;;;;;;21.80;71.30;;;;;;5053568;28;906;-66
2022/07/19 10:04:27;;;;;;;;;;;21.80;71.30;;;;;;5035393;28;1433;-65
2022/07/19 10:06:53;;;;;;;;;;;21.80;71.40;;;;;;5052737;28;1889;-65
2022/07/19 10:09:19;;;;;;;;;;;21.80;71.40;;;;;;5035331;28;1784;-65
2022/07/19 10:11:45;;;;;;;;;;;21.70;72.10;;;;;;5053095;28;1682;-65
2022/07/19 10:14:11;;;;;;;;;;;21.70;71.40;;;;;;5053041;28;827;-65
2022/07/19 10:16:46;;;;;;;;;;;21.70;71.50;;;;;;5053307;28;1278;-65
2022/07/19 10:19:19;;;;;;;;;;;21.80;72.20;;;;;;5053038;28;1906;-65
2022/07/19 10:21:44;;;;;;;;;;;21.80;72.30;;;;;;5034525;28;788;-66
2022/07/19 10:24:10;;;;;;;;;;;21.80;72.20;;;;;;5034999;28;1244;-65
2022/07/19 10:26:35;;;;;;;;;;;21.80;72.20;;;;;;5035104;28;1203;-66
2022/07/19 10:29:11;;;;;;;;;;;21.80;72.20;;;;;;5052625;28;1491;-66
2022/07/19 10:31:36;;;;;;;;;;;21.80;72.30;;;;;;5052659;28;1550;-65
2022/07/19 10:34:06;;;;;;;;;;;21.80;72.30;;;;;;5052907;28;808;-66
2022/07/19 10:36:34;;;;;;;;;;;21.80;72.30;;;;;;5052828;28;862;-66
2022/07/19 10:39:21;;;;;;;;;;;21.70;72.30;;;;;;5052924;28;1953;-65
2022/07/19 10:42:05;;;;;;;;;;;21.70;72.40;;;;;;5052936;28;815;-66
2022/07/19 10:44:31;;;;;;;;;;;21.80;72.50;;;;;;5052716;28;819;-65
2022/07/19 10:46:56;;;;;;;;;;;21.80;72.70;;;;;;5052865;28;1173;-65
2022/07/19 10:49:40;;;;;;;;;;;21.80;72.80;;;;;;5052781;28;907;-66
2022/07/19 10:52:24;;;;;;;;;;;21.80;73.70;;;;;;5052842;28;978;-65
2022/07/19 10:55:25;;;;;;;;;;;21.80;73.70;;;;;;5052638;28;998;-65
2022/07/19 10:58:06;;;;;;;;;;;21.80;73.60;;;;;;5041756;28;1232;-65
2022/07/19 11:00:44;;;;;;;;;;;21.80;73.60;;;;;;5052792;28;1902;-65
2022/07/19 11:03:28;;;;;;;;;;;21.80;73.60;;;;;;5052626;28;808;-65
2022/07/19 11:05:57;;;;;;;;;;;21.90;73.70;;;;;;5032844;28;1894;-65
2022/07/19 11:08:33;;;;;;;;;;;21.80;73.50;;;;;;5025708;28;2186;-67
2022/07/19 11:11:08;;;;;;;;;;;21.80;73.90;;;;;;5051528;28;1454;-67
2022/07/19 11:13:33;;;;;;;;;;;21.80;73.90;;;;;;5018129;28;1568;-66
2022/07/19 11:15:59;;;;;;;;;;;21.80;73.70;;;;;;5014955;28;891;-67
2022/07/19 11:18:24;;;;;;;;;;;21.90;73.70;;;;;;5014918;28;1245;-67
2022/07/19 11:20:50;;;;;;;;;;;21.90;73.40;;;;;;5051216;28;1981;-66
2022/07/19 11:23:17;;;;;;;;;;;21.80;73.30;;;;;;5032728;28;2284;-66
2022/07/19 11:25:42;;;;;;;;;;;21.90;73.50;;;;;;5029013;28;2267;-66
2022/07/19 11:28:19;;;;;;;;;;;21.80;73.40;;;;;;5034663;28;1476;-66
2022/07/19 11:30:44;;;;;;;;;;;21.80;73.40;;;;;;5005920;28;1437;-66
2022/07/19 11:33:09;;;;;;;;;;;21.90;73.40;;;;;;5032543;28;1586;-66
2022/07/19 11:35:35;;;;;;;;;;;21.80;73.40;;;;;;5036112;28;1014;-67
2022/07/19 11:38:00;;;;;;;;;;;21.90;73.60;;;;;;5036241;28;1217;-65
2022/07/19 11:40:32;;;;;;;;;;;21.80;73.40;;;;;;5043705;28;1906;-65
2022/07/19 11:42:57;;;;;;;;;;;21.90;73.40;;;;;;5047973;28;1565;-66
2022/07/19 11:45:23;;;;;;;;;;;21.90;73.30;;;;;;5038132;28;855;-66
2022/07/19 11:47:50;;;;;;;;;;;21.90;73.40;;;;;;5038209;28;1166;-66
2022/07/19 11:50:16;;;;;;;;;;;21.90;73.20;;;;;;5052743;28;2255;-66
2022/07/19 11:52:45;;;;;;;;;;;21.90;73.10;;;;;;5034270;28;1536;-66
2022/07/19 11:55:11;;;;;;;;;;;21.90;73.10;;;;;;5050030;28;1600;-67
2022/07/19 11:57:36;;;;;;;;;;;21.90;73.10;;;;;;5018194;28;1286;-68
2022/07/19 12:00:02;;;;;;;;;;;21.90;73.00;;;;;;5018021;28;1899;-67
2022/07/19 12:02:28;;;;;;;;;;;21.90;73.10;;;;;;5035784;28;1029;-68
2022/07/19 12:04:53;;;;;;;;;;;21.90;73.20;;;;;;5040862;28;1104;-67
2022/07/19 12:07:19;;;;;;;;;;;21.90;73.10;;;;;;5055656;28;1414;-67
2022/07/19 12:09:44;;;;;;;;;;;21.90;73.10;;;;;;5055607;28;855;-68
2022/07/19 12:12:13;;;;;;;;;;;21.90;73.10;;;;;;5037814;28;859;-67
2022/07/19 12:14:40;;;;;;;;;;;21.90;73.00;;;;;;5055049;28;910;-67
2022/07/19 12:17:17;;;;;;;;;;;21.90;73.00;;;;;;5055526;28;1299;-67
2022/07/19 12:19:44;;;;;;;;;;;21.90;73.10;;;;;;5055452;28;1905;-68
2022/07/19 12:22:28;;;;;;;;;;;21.90;73.00;;;;;;5055440;28;914;-67
2022/07/19 12:24:53;;;;;;;;;;;21.90;73.00;;;;;;5055199;28;942;-67
2022/07/19 12:27:20;;;;;;;;;;;21.90;73.00;;;;;;5055003;28;1299;-66
2022/07/19 12:29:46;;;;;;;;;;;21.90;73.00;;;;;;5055233;28;862;-67
2022/07/19 12:32:13;;;;;;;;;;;22.00;73.10;;;;;;5037581;28;905;-67
2022/07/19 12:34:56;;;;;;;;;;;22.00;73.30;;;;;;5020513;28;935;-67
2022/07/19 12:37:29;;;;;;;;;;;22.00;73.80;;;;;;5038060;28;1207;-67
2022/07/19 12:40:05;;;;;;;;;;;22.00;73.60;;;;;;5054955;28;1910;-69
2022/07/19 12:42:37;;;;;;;;;;;22.00;73.70;;;;;;5053119;28;2107;-68
2022/07/19 12:45:04;;;;;;;;;;;22.00;73.60;;;;;;5051668;28;2128;-70
2022/07/19 12:47:30;;;;;;;;;;;22.00;73.50;;;;;;5054754;28;1560;-68
2022/07/19 12:49:55;;;;;;;;;;;21.90;73.40;;;;;;5034895;28;1658;-70
2022/07/19 12:52:21;;;;;;;;;;;22.00;73.50;;;;;;5017074;28;1097;-69
2022/07/19 12:54:46;;;;;;;;;;;21.90;73.70;;;;;;5034692;28;1026;-69
2022/07/19 12:57:11;;;;;;;;;;;22.00;73.80;;;;;;5034810;28;1255;-69
2022/07/19 12:59:40;;;;;;;;;;;22.00;73.80;;;;;;5034821;28;1901;-69
2022/07/19 13:02:09;;;;;;;;;;;21.90;73.80;;;;;;5034801;28;815;-69
2022/07/19 13:04:35;;;;;;;;;;;22.00;73.80;;;;;;5019487;28;1393;-69
2022/07/19 13:07:00;;;;;;;;;;;22.00;73.80;;;;;;5054463;28;1503;-69
2022/07/19 13:09:26;;;;;;;;;;;21.90;73.70;;;;;;5054784;28;1021;-69
2022/07/19 13:11:51;;;;;;;;;;;21.90;73.70;;;;;;5054459;28;840;-69
2022/07/19 13:14:16;;;;;;;;;;;21.90;73.70;;;;;;5054454;28;839;-67
2022/07/19 13:16:42;;;;;;;;;;;21.90;73.80;;;;;;5054387;28;1212;-69
2022/07/19 13:19:07;;;;;;;;;;;21.90;73.60;;;;;;5054176;28;1906;-67
2022/07/19 13:21:33;;;;;;;;;;;22.00;73.70;;;;;;5053329;28;2230;-67
2022/07/19 13:23:59;;;;;;;;;;;21.90;73.80;;;;;;5053031;28;1404;-68
2022/07/19 13:26:24;;;;;;;;;;;21.90;73.70;;;;;;5046788;28;1501;-67
2022/07/19 13:28:49;;;;;;;;;;;21.90;73.60;;;;;;4995073;23;1150097;-74
2022/07/19 13:31:15;;;;;;;;;;;21.90;73.50;;;;;;5013147;28;1456;-73
2022/07/19 13:33:40;;;;;;;;;;;21.90;73.50;;;;;;5012825;28;1025;-74
2022/07/19 13:36:06;;;;;;;;;;;22.00;73.60;;;;;;5014268;28;1138;-75
2022/07/19 13:38:31;;;;;;;;;;;22.00;73.60;;;;;;5013127;28;1906;-73
2022/07/19 13:40:57;;;;;;;;;;;21.90;73.50;;;;;;5014978;28;966;-72
2022/07/19 13:43:22;;;;;;;;;;;22.00;73.70;;;;;;5013556;28;856;-74
2022/07/19 13:45:48;;;;;;;;;;;22.00;73.60;;;;;;5012881;28;1260;-73
2022/07/19 13:48:13;;;;;;;;;;;22.00;74.00;;;;;;5013758;28;2059;-73
2022/07/19 13:50:39;;;;;;;;;;;22.00;74.10;;;;;;5014177;28;846;-73
2022/07/19 13:53:04;;;;;;;;;;;22.00;74.00;;;;;;5012603;28;911;-74
2022/07/19 13:55:31;;;;;;;;;;;22.00;73.90;;;;;;5012972;28;879;-74
2022/07/19 13:57:56;;;;;;;;;;;22.00;73.80;;;;;;4996402;28;1290;-74
2022/07/19 14:00:23;;;;;;;;;;;22.00;73.90;;;;;;5013758;28;1992;-73
2022/07/19 14:02:48;;;;;;;;;;;22.00;73.80;;;;;;5012508;28;807;-73
2022/07/19 14:05:14;;;;;;;;;;;22.00;73.70;;;;;;5013740;28;816;-74
2022/07/19 14:07:39;;;;;;;;;;;22.00;73.60;;;;;;5012390;28;1075;-73
2022/07/19 14:10:05;;;;;;;;;;;22.00;73.60;;;;;;5012424;28;1277;-75
2022/07/19 14:12:30;;;;;;;;;;;22.00;73.70;;;;;;5013692;28;1025;-73
2022/07/19 14:14:56;;;;;;;;;;;22.00;73.60;;;;;;4992503;28;1297;-74
2022/07/19 14:17:21;;;;;;;;;;;22.00;73.60;;;;;;4994078;28;804;-74
2022/07/19 14:19:47;;;;;;;;;;;22.00;73.60;;;;;;4992629;28;1968;-74
2022/07/19 14:22:12;;;;;;;;;;;22.00;73.70;;;;;;4992831;28;953;-74
2022/07/19 14:24:38;;;;;;;;;;;22.00;73.80;;;;;;4993628;28;924;-75
2022/07/19 14:27:03;;;;;;;;;;;22.00;73.90;;;;;;4992683;28;1468;-74
2022/07/19 14:29:29;;;;;;;;;;;22.00;74.00;;;;;;5001377;28;1433;-73
2022/07/19 14:31:54;;;;;;;;;;;22.00;73.90;;;;;;5013434;28;1417;-74